createdAt,value
2018-08-03T07:25:46.422Z,28.50
2018-08-03T07:28:16.753Z,28.60
2018-08-03T07:30:46.246Z,28.80
2018-08-03T07:33:15.786Z,28.80
2018-08-03T07:38:14.619Z,29.10
2018-08-03T07:40:44.056Z,29.30
2018-08-03T07:43:13.525Z,29.10
2018-08-03T07:45:42.853Z,29.30
2018-08-03T07:48:12.252Z,29.30
2018-08-03T07:53:24.389Z,29.70
2018-08-03T07:55:53.778Z,29.50
2018-08-03T07:58:23.194Z,29.30
2018-08-03T08:00:54.910Z,29.60
2018-08-03T08:03:27.243Z,29.80
2018-08-03T08:05:56.732Z,29.90
2018-08-03T08:08:26.255Z,30.10
2018-08-03T08:10:56.924Z,30.30
2018-08-03T08:13:26.769Z,30.30
2018-08-03T08:15:56.244Z,30.50
2018-08-03T08:18:25.946Z,30.50
2018-08-03T08:20:57.235Z,30.60
2018-08-03T08:23:26.774Z,30.80
2018-08-03T08:25:57.060Z,30.80
2018-08-03T08:28:26.504Z,30.70
2018-08-03T08:31:00.155Z,30.70
2018-08-03T08:33:30.480Z,30.50
2018-08-03T08:36:00.546Z,30.70
2018-08-03T08:38:29.934Z,30.70
2018-08-03T08:41:00.417Z,30.80
2018-08-03T08:43:29.843Z,31.00
2018-08-03T08:45:59.278Z,31.10
2018-08-03T08:51:16.272Z,31.30
2018-08-03T08:53:46.551Z,31.30
2018-08-03T08:56:23.219Z,31.30
2018-08-03T08:58:52.856Z,31.50
2018-08-03T09:01:24.303Z,31.40
2018-08-03T09:03:53.796Z,31.50
2018-08-03T09:08:52.327Z,31.90
2018-08-03T09:11:25.761Z,32.00
2018-08-03T09:13:55.305Z,32.00
2018-08-03T09:16:24.934Z,32.00
2018-08-03T09:18:54.390Z,32.10
2018-08-03T09:22:05.376Z,32.20
2018-08-03T09:24:34.910Z,32.40
2018-08-03T09:27:04.458Z,32.70
2018-08-03T09:29:33.929Z,32.70
2018-08-03T09:32:13.494Z,32.40
2018-08-03T09:34:42.861Z,32.60
2018-08-03T09:37:12.327Z,32.80
2018-08-03T09:39:41.746Z,32.80
2018-08-03T09:42:11.166Z,32.70
2018-08-03T09:44:40.600Z,33.30
2018-08-03T09:47:09.967Z,33.30
2018-08-03T09:49:39.379Z,33.60
2018-08-03T09:52:10.754Z,33.90
2018-08-03T09:54:40.184Z,33.80
2018-08-03T09:57:09.623Z,33.70
2018-08-03T09:59:39.063Z,33.70
2018-08-03T10:02:09.786Z,33.80
2018-08-03T10:04:39.289Z,34.10
2018-08-03T10:07:08.757Z,34.30
2018-08-03T10:09:40.339Z,34.50
2018-08-03T10:17:17.033Z,34.90
2018-08-03T10:22:16.571Z,35.30
2018-08-03T10:24:45.907Z,35.30
2018-08-03T10:27:15.281Z,35.60
2018-08-03T10:29:44.755Z,35.10
2018-08-03T10:32:45.399Z,35.40
2018-08-03T10:35:14.818Z,35.80
2018-08-03T10:37:44.135Z,35.10
2018-08-03T10:40:13.509Z,35.60
2018-08-03T10:42:56.775Z,35.70
2018-08-03T10:45:26.150Z,35.70
2018-08-03T10:47:55.503Z,35.60
2018-08-03T10:50:24.922Z,35.40
2018-08-03T10:52:54.269Z,35.90
2018-08-03T10:55:23.838Z,36.60
2018-08-03T10:57:53.201Z,37.60
2018-08-03T11:00:30.557Z,38.10
2018-08-03T11:03:00.266Z,37.80
2018-08-03T11:05:29.958Z,37.10
2018-08-03T11:07:59.327Z,37.00
2018-08-03T11:10:28.783Z,37.40
2018-08-03T11:12:58.174Z,37.70
2018-08-03T11:15:27.506Z,37.90
2018-08-03T11:17:57.798Z,38.50
2018-08-03T11:20:58.247Z,38.60
2018-08-03T11:23:27.658Z,36.10
2018-08-03T11:25:57.035Z,35.70
2018-08-03T11:28:26.474Z,35.40
2018-08-03T11:31:09.958Z,36.40
2018-08-03T11:33:39.407Z,38.00
2018-08-03T11:36:08.894Z,37.00
2018-08-03T11:38:38.367Z,37.50
2018-08-03T11:41:08.918Z,38.90
2018-08-03T11:43:38.411Z,39.10
2018-08-03T11:46:08.234Z,39.10
2018-08-03T11:48:37.723Z,39.60
2018-08-03T11:51:12.763Z,39.60
2018-08-03T11:53:42.233Z,40.20
2018-08-03T11:56:11.707Z,40.10
2018-08-03T11:58:41.118Z,40.40
2018-08-03T12:01:23.576Z,40.40
2018-08-03T12:03:53.014Z,40.90
2018-08-03T12:06:22.475Z,40.70
2018-08-03T12:11:34.434Z,39.80
2018-08-03T12:14:03.841Z,39.90
2018-08-03T12:16:33.378Z,40.60
2018-08-03T12:19:02.785Z,40.60
2018-08-03T12:21:40.681Z,39.90
2018-08-03T12:24:10.190Z,39.20
2018-08-03T12:26:39.602Z,39.90
2018-08-03T12:29:09.103Z,39.70
2018-08-03T12:32:02.017Z,40.70
2018-08-03T12:34:31.586Z,41.40
2018-08-03T12:37:01.021Z,41.90
2018-08-03T12:39:30.423Z,42.50
2018-08-03T12:42:03.606Z,41.10
2018-08-03T12:44:33.106Z,39.50
2018-08-03T12:47:02.477Z,39.20
2018-08-03T12:49:31.845Z,38.90
2018-08-03T12:52:18.533Z,39.60
2018-08-03T12:54:47.965Z,41.10
2018-08-03T12:57:17.338Z,41.40
2018-08-03T12:59:46.820Z,42.00
2018-08-03T13:02:17.165Z,41.60
2018-08-03T13:04:46.541Z,41.70
2018-08-03T13:07:16.042Z,41.20
2018-08-03T13:09:45.406Z,40.10
2018-08-03T13:12:49.579Z,40.90
2018-08-03T13:15:18.990Z,40.00
2018-08-03T13:17:48.470Z,40.30
2018-08-03T13:20:17.955Z,41.10
2018-08-03T13:22:47.329Z,39.10
2018-08-03T13:25:16.870Z,38.40
2018-08-03T13:27:46.347Z,39.30
2018-08-03T13:30:15.778Z,40.40
2018-08-03T13:32:45.181Z,41.10
2018-08-03T13:35:14.651Z,42.60
2018-08-03T13:37:44.082Z,42.50
2018-08-03T13:40:13.562Z,42.40
2018-08-03T13:42:44.049Z,39.90
2018-08-03T13:45:13.433Z,39.40
2018-08-03T13:47:42.935Z,39.20
2018-08-03T13:50:12.514Z,39.20
2018-08-03T13:52:55.569Z,37.90
2018-08-03T13:55:24.953Z,37.60
2018-08-03T13:57:54.357Z,37.20
2018-08-03T14:00:23.705Z,37.10
2018-08-03T14:02:53.088Z,36.80
2018-08-03T14:05:22.444Z,36.60
2018-08-03T14:07:51.945Z,36.40
2018-08-03T14:10:21.325Z,36.20
2018-08-03T14:12:50.787Z,36.10
2018-08-03T14:15:20.239Z,36.00
2018-08-03T14:17:49.721Z,35.60
2018-08-03T14:20:19.102Z,35.20
2018-08-03T14:22:48.506Z,36.90
2018-08-03T14:25:17.893Z,37.20
2018-08-03T14:27:46.986Z,38.70
2018-08-03T14:30:16.103Z,39.20
2018-08-03T14:32:45.294Z,40.30
2018-08-03T14:35:14.473Z,39.60
2018-08-03T14:37:43.569Z,39.50
2018-08-03T14:40:12.678Z,39.60
2018-08-03T14:42:42.133Z,40.70
2018-08-03T14:45:11.745Z,41.00
2018-08-03T14:47:41.138Z,40.20
2018-08-03T14:50:10.556Z,40.90
2018-08-03T14:52:56.457Z,40.30
2018-08-03T14:55:25.973Z,40.20
2018-08-03T14:57:55.390Z,40.70
2018-08-03T15:00:54.879Z,40.80
2018-08-03T15:03:24.274Z,40.40
2018-08-03T15:08:23.253Z,40.20
2018-08-03T15:11:17.815Z,40.30
2018-08-03T15:13:47.206Z,40.40
2018-08-03T15:16:16.650Z,40.80
2018-08-03T15:18:46.085Z,40.90
2018-08-03T15:21:24.789Z,40.20
2018-08-03T15:23:54.149Z,40.00
2018-08-03T15:26:23.662Z,40.60
2018-08-03T15:28:53.138Z,40.30
2018-08-03T15:31:33.174Z,40.70
2018-08-03T15:34:02.639Z,39.80
2018-08-03T15:36:33.032Z,39.80
2018-08-03T15:39:02.409Z,40.90
2018-08-03T15:41:44.634Z,39.90
2018-08-03T15:44:14.009Z,40.40
2018-08-03T15:46:43.375Z,40.50
2018-08-03T15:49:12.806Z,40.30
2018-08-03T15:51:56.554Z,40.10
2018-08-03T15:54:26.026Z,40.50
2018-08-03T15:56:55.435Z,40.10
2018-08-03T16:02:16.962Z,40.90
2018-08-03T16:04:46.362Z,40.10
2018-08-03T16:07:15.780Z,40.10
2018-08-03T16:09:45.123Z,40.00
2018-08-03T16:12:35.501Z,40.00
2018-08-03T16:15:05.166Z,40.40
2018-08-03T16:17:34.632Z,40.50
2018-08-03T16:20:04.211Z,40.70
2018-08-03T16:22:47.285Z,40.60
2018-08-03T16:25:16.741Z,40.70
2018-08-03T16:27:46.140Z,41.30
2018-08-03T16:30:15.650Z,41.30
2018-08-03T16:32:45.019Z,41.50
2018-08-03T16:35:14.459Z,41.40
2018-08-03T16:37:43.890Z,41.20
2018-08-03T16:40:13.286Z,41.30
2018-08-03T16:42:57.746Z,41.30
2018-08-03T16:45:27.186Z,41.20
2018-08-03T16:47:56.683Z,40.90
2018-08-03T16:50:26.127Z,40.30
2018-08-03T16:52:55.529Z,40.40
2018-08-03T16:55:24.960Z,40.40
2018-08-03T16:57:54.351Z,39.80
2018-08-03T17:00:23.792Z,38.70
2018-08-03T17:02:53.234Z,38.10
2018-08-03T17:05:22.721Z,37.90
2018-08-03T17:07:52.179Z,37.50
2018-08-03T17:10:21.654Z,37.00
2018-08-03T17:12:51.072Z,36.70
2018-08-03T17:15:20.494Z,36.50
2018-08-03T17:20:19.095Z,36.10
2018-08-03T17:22:48.469Z,35.70
2018-08-03T17:25:17.880Z,35.70
2018-08-03T17:27:47.370Z,35.40
2018-08-03T17:30:16.849Z,35.40
2018-08-03T17:32:46.331Z,35.40
2018-08-03T17:35:16.090Z,35.40
2018-08-03T17:37:45.514Z,35.20
2018-08-03T17:42:44.186Z,35.00
2018-08-03T17:45:13.581Z,34.80
2018-08-03T17:47:43.061Z,34.60
2018-08-03T17:50:12.474Z,34.60
2018-08-03T17:53:11.986Z,34.50
2018-08-03T17:55:41.486Z,34.40
2018-08-03T17:58:10.917Z,34.30
2018-08-03T18:00:47.498Z,33.80
2018-08-03T18:03:17.241Z,33.80
2018-08-03T18:05:46.677Z,33.30
2018-08-03T18:08:16.007Z,33.10
2018-08-03T18:10:47.368Z,32.80
2018-08-03T18:13:16.841Z,32.30
2018-08-03T18:15:46.393Z,32.30
2018-08-03T18:18:15.738Z,31.60
2018-08-03T18:20:46.242Z,31.40
2018-08-03T18:23:15.671Z,31.00
2018-08-03T18:25:45.066Z,30.90
2018-08-03T18:28:14.499Z,30.70
2018-08-03T18:30:49.803Z,30.70
2018-08-03T18:33:19.242Z,30.50
2018-08-03T18:35:48.645Z,30.40
2018-08-03T18:38:18.477Z,30.30
2018-08-03T18:40:56.301Z,30.30
2018-08-03T18:43:25.782Z,30.20
2018-08-03T18:45:55.154Z,30.10
2018-08-03T18:48:24.472Z,30.10
2018-08-03T18:50:56.101Z,30.00
2018-08-03T18:53:26.479Z,29.90
2018-08-03T18:55:55.837Z,29.80
2018-08-03T18:58:25.277Z,29.80
2018-08-03T19:01:18.289Z,29.60
2018-08-03T19:03:47.669Z,29.60
2018-08-03T19:06:17.100Z,29.50
2018-08-03T19:08:46.478Z,29.40
2018-08-03T19:11:16.006Z,29.30
2018-08-03T19:16:14.589Z,29.10
2018-08-03T19:18:44.042Z,29.20
2018-08-03T19:21:20.722Z,29.20
2018-08-03T19:23:50.177Z,29.20
2018-08-03T19:26:19.666Z,29.10
2018-08-03T19:28:49.022Z,28.80
2018-08-03T19:31:19.525Z,28.90
2018-08-03T19:33:48.931Z,28.90
2018-08-03T19:36:18.398Z,28.90
2018-08-03T19:38:47.994Z,28.70
2018-08-03T19:41:20.946Z,28.70
2018-08-03T19:43:50.458Z,28.50
2018-08-03T19:46:19.888Z,28.40
2018-08-03T19:48:49.270Z,28.40
2018-08-03T19:51:23.895Z,28.50
2018-08-03T19:53:53.310Z,28.30
2018-08-03T19:56:22.742Z,28.40
2018-08-03T19:58:53.099Z,28.30
2018-08-03T20:01:30.738Z,28.20
2018-08-03T20:04:00.250Z,27.90
2018-08-03T20:06:29.729Z,27.90
2018-08-03T20:08:59.106Z,27.90
2018-08-03T20:11:40.542Z,27.70
2018-08-03T20:16:39.050Z,27.40
2018-08-03T20:19:08.534Z,27.50
2018-08-03T20:21:43.734Z,27.60
2018-08-03T20:24:13.178Z,27.50
2018-08-03T20:26:42.649Z,27.30
2018-08-03T20:29:12.065Z,27.50
2018-08-03T20:31:49.102Z,27.50
2018-08-03T20:34:18.497Z,27.60
2018-08-03T20:36:47.985Z,27.50
2018-08-03T20:39:18.362Z,27.50
2018-08-03T20:42:15.406Z,27.40
2018-08-03T20:44:44.801Z,27.10
2018-08-03T20:49:43.263Z,26.70
2018-08-03T20:52:17.806Z,26.80
2018-08-03T20:54:47.220Z,26.80
2018-08-03T20:57:16.625Z,26.80
2018-08-03T20:59:46.038Z,26.50
2018-08-03T21:02:41.325Z,26.50
2018-08-03T21:05:10.729Z,26.40
2018-08-03T21:07:40.133Z,26.20
2018-08-03T21:12:43.075Z,26.30
2018-08-03T21:15:12.426Z,26.20
2018-08-03T21:17:41.895Z,26.10
2018-08-03T21:20:11.430Z,26.10
2018-08-03T21:23:04.813Z,26.00
2018-08-03T21:25:34.202Z,26.10
2018-08-03T21:28:03.678Z,26.00
2018-08-03T21:30:45.125Z,26.10
2018-08-03T21:33:14.510Z,26.10
2018-08-03T21:35:43.966Z,26.20
2018-08-03T21:38:14.162Z,26.10
2018-08-03T21:40:44.560Z,26.20
2018-08-03T21:43:14.058Z,26.10
2018-08-03T21:45:43.542Z,26.10
2018-08-03T21:48:12.927Z,26.10
2018-08-03T21:50:47.151Z,26.00
2018-08-03T21:53:16.539Z,26.10
2018-08-03T21:55:45.993Z,26.10
2018-08-03T21:58:15.349Z,26.00
2018-08-03T22:01:17.562Z,25.90
2018-08-03T22:03:46.956Z,25.80
2018-08-03T22:06:16.414Z,25.50
2018-08-03T22:08:45.859Z,25.30
2018-08-03T22:11:15.347Z,25.30
2018-08-03T22:13:44.767Z,25.20
2018-08-03T22:16:14.230Z,25.00
2018-08-03T22:18:43.675Z,25.10
2018-08-03T22:21:30.142Z,25.10
2018-08-03T22:23:59.593Z,24.90
2018-08-03T22:26:29.000Z,24.70
2018-08-03T22:28:58.394Z,24.70
2018-08-03T22:31:37.604Z,24.60
2018-08-03T22:34:07.025Z,24.80
2018-08-03T22:36:36.438Z,24.80
2018-08-03T22:39:08.537Z,24.80
2018-08-03T22:41:46.026Z,24.70
2018-08-03T22:44:15.329Z,24.70
2018-08-03T22:46:44.754Z,24.50
2018-08-03T22:49:14.181Z,24.30
2018-08-03T22:51:47.382Z,24.30
2018-08-03T22:54:16.743Z,24.40
2018-08-03T22:56:46.289Z,24.10
2018-08-03T22:59:15.753Z,24.20
2018-08-03T23:01:45.141Z,24.20
2018-08-03T23:04:14.510Z,23.90
2018-08-03T23:06:43.900Z,24.20
2018-08-03T23:11:50.485Z,24.10
2018-08-03T23:14:19.851Z,24.00
2018-08-03T23:16:49.244Z,23.90
2018-08-03T23:19:18.647Z,23.80
2018-08-03T23:21:48.123Z,23.60
2018-08-03T23:24:17.477Z,23.60
2018-08-03T23:26:46.854Z,23.50
2018-08-03T23:29:16.262Z,23.40
2018-08-03T23:31:59.622Z,23.40
2018-08-03T23:34:29.055Z,23.30
2018-08-03T23:36:58.449Z,23.30
2018-08-03T23:39:27.937Z,23.30
2018-08-03T23:42:15.938Z,23.20
2018-08-03T23:44:45.365Z,23.10
2018-08-03T23:47:14.766Z,23.20
2018-08-03T23:49:44.185Z,23.00
2018-08-03T23:52:16.873Z,22.80
2018-08-03T23:54:46.274Z,22.90
2018-08-03T23:57:16.146Z,23.00
2018-08-03T23:59:45.491Z,22.80
